Time,TemperatureF,DewpointF,PressureIn,WindDirection,WindDirectionDegrees,WindSpeedMPH,WindSpeedGustMPH,Humidity,HourlyPrecipIn,Conditions,Clouds,dailyrainin,SoftwareType,DateUTC
2013-04-25 00:00:00,64.2,53.4,30.30,ESE,113,2.0,2.2,68,0.00,,,0.00,WUHU216HW,2013-04-24 22:00:00,
2013-04-25 00:05:00,64.4,53.2,30.30,South,180,2.2,4.0,67,0.00,,,0.00,WUHU216HW,2013-04-24 22:05:00,
2013-04-25 00:10:00,64.7,53.5,30.30,SSE,167,3.8,4.4,67,0.00,,,0.00,WUHU216HW,2013-04-24 22:10:00,
2013-04-25 00:15:00,65.3,53.6,30.30,South,172,1.1,5.8,66,0.00,,,0.00,WUHU216HW,2013-04-24 22:15:00,
2013-04-25 00:20:00,65.3,53.6,30.30,North,0,0.0,5.8,66,0.00,,,0.00,WUHU216HW,2013-04-24 22:20:00,
2013-04-25 00:25:00,64.9,53.2,30.30,NNW,338,0.0,2.0,66,0.00,,,0.00,WUHU216HW,2013-04-24 22:25:00,
2013-04-25 00:30:00,64.5,52.9,30.30,NNW,338,0.0,0.0,66,0.00,,,0.00,WUHU216HW,2013-04-24 22:30:00,
2013-04-25 00:35:00,64.2,53.0,30.30,South,180,1.1,1.1,67,0.00,,,0.00,WUHU216HW,2013-04-24 22:35:00,
2013-04-25 00:40:00,64.0,53.2,30.30,East,90,2.4,2.4,68,0.00,,,0.00,WUHU216HW,2013-04-24 22:40:00,
2013-04-25 00:45:00,63.6,53.3,30.30,SE,135,1.1,2.4,69,0.00,,,0.00,WUHU216HW,2013-04-24 22:45:00,
2013-04-25 00:50:00,63.5,53.1,30.31,ESE,113,0.0,2.0,69,0.00,,,0.00,WUHU216HW,2013-04-24 22:50:00,
2013-04-25 00:55:00,63.1,53.2,30.31,SE,135,1.1,2.4,70,0.00,,,0.00,WUHU216HW,2013-04-24 22:55:00,
2013-04-25 01:01:00,62.7,52.8,30.30,SE,135,1.5,2.4,70,0.00,,,0.00,WUHU216HW,2013-04-24 23:01:00,
2013-04-25 01:06:00,62.7,53.2,30.31,SE,135,0.0,2.0,71,0.00,,,0.00,WUHU216HW,2013-04-24 23:06:00,
2013-04-25 01:11:00,62.7,53.2,30.30,East,90,2.0,2.0,71,0.00,,,0.00,WUHU216HW,2013-04-24 23:11:00,
2013-04-25 01:16:00,62.4,52.8,30.30,SSE,158,0.0,2.2,71,0.00,,,0.00,WUHU216HW,2013-04-24 23:16:00,
2013-04-25 01:21:00,62.4,53.2,30.30,ENE,68,0.0,2.2,72,0.00,,,0.00,WUHU216HW,2013-04-24 23:21:00,
2013-04-25 01:26:00,62.0,52.9,30.30,ESE,113,0.0,1.5,72,0.00,,,0.00,WUHU216HW,2013-04-24 23:26:00,
2013-04-25 01:31:00,61.8,52.7,30.30,ESE,113,1.3,1.5,72,0.00,,,0.00,WUHU216HW,2013-04-24 23:31:00,
2013-04-25 01:36:00,61.7,52.9,30.30,East,90,2.9,2.9,72,0.00,,,0.00,WUHU216HW,2013-04-24 23:36:00,
2013-04-25 01:41:00,61.5,52.4,30.30,South,180,0.0,2.9,72,0.00,,,0.00,WUHU216HW,2013-04-24 23:41:00,
2013-04-25 01:46:00,61.5,52.4,30.30,SSW,203,0.0,2.0,72,0.00,,,0.00,WUHU216HW,2013-04-24 23:46:00,
2013-04-25 01:51:00,61.5,52.8,30.30,East,90,1.3,1.3,73,0.00,,,0.00,WUHU216HW,2013-04-24 23:51:00,
2013-04-25 01:56:00,61.3,52.2,30.30,SE,135,0.0,1.3,72,0.00,,,0.00,WUHU216HW,2013-04-24 23:56:00,
2013-04-25 02:01:00,61.5,52.8,30.30,East,81,1.9,2.2,73,0.00,,,0.00,WUHU216HW,2013-04-25 00:01:00,
2013-04-25 02:06:00,61.5,52.6,30.30,ENE,68,1.1,2.2,73,0.00,,,0.00,WUHU216HW,2013-04-25 00:06:00,
2013-04-25 02:11:00,61.3,52.2,30.30,South,180,0.0,2.2,72,0.00,,,0.00,WUHU216HW,2013-04-25 00:11:00,
2013-04-25 02:16:00,61.3,52.4,30.30,SW,225,0.0,0.0,73,0.00,,,0.00,WUHU216HW,2013-04-25 00:16:00,
2013-04-25 02:21:00,61.5,52.4,30.30,SSW,203,2.0,2.0,72,0.00,,,0.00,WUHU216HW,2013-04-25 00:21:00,
2013-04-25 02:26:00,61.8,52.7,30.30,SSW,203,0.0,2.0,72,0.00,,,0.00,WUHU216HW,2013-04-25 00:26:00,
2013-04-25 02:31:00,61.8,52.4,30.30,SSE,158,1.1,1.7,71,0.00,,,0.00,WUHU216HW,2013-04-25 00:31:00,
2013-04-25 02:36:00,61.8,52.4,30.30,South,180,0.0,1.7,71,0.00,,,0.00,WUHU216HW,2013-04-25 00:36:00,
2013-04-25 02:41:00,61.8,52.4,30.30,South,180,0.8,1.5,71,0.00,,,0.00,WUHU216HW,2013-04-25 00:41:00,
2013-04-25 02:46:00,61.7,52.2,30.30,ENE,68,1.5,1.5,71,0.00,,,0.00,WUHU216HW,2013-04-25 00:46:00,
2013-04-25 02:51:00,61.3,51.9,30.30,ENE,68,1.5,1.5,71,0.00,,,0.00,WUHU216HW,2013-04-25 00:51:00,
2013-04-25 02:56:00,61.1,51.7,30.30,SE,135,0.0,1.5,71,0.00,,,0.00,WUHU216HW,2013-04-25 00:56:00,
2013-04-25 03:01:00,60.9,51.9,30.30,ENE,68,0.6,1.3,72,0.00,,,0.00,WUHU216HW,2013-04-25 01:01:00,
2013-04-25 03:06:00,60.8,51.8,30.30,NE,45,1.1,1.3,72,0.00,,,0.00,WUHU216HW,2013-04-25 01:06:00,
2013-04-25 03:11:00,60.6,51.6,30.30,ENE,68,0.0,1.1,72,0.00,,,0.00,WUHU216HW,2013-04-25 01:11:00,
2013-04-25 03:16:00,60.6,51.6,30.30,SSE,158,1.1,1.1,72,0.00,,,0.00,WUHU216HW,2013-04-25 01:16:00,
2013-04-25 03:21:00,60.6,51.6,30.30,East,90,2.1,2.2,71,0.00,,,0.00,WUHU216HW,2013-04-25 01:21:00,
2013-04-25 03:26:00,60.4,51.4,30.29,ESE,113,2.6,2.6,72,0.00,,,0.00,WUHU216HW,2013-04-25 01:26:00,
2013-04-25 03:31:00,60.0,51.0,30.30,SE,135,0.0,2.6,72,0.00,,,0.00,WUHU216HW,2013-04-25 01:31:00,
2013-04-25 03:36:00,60.0,51.4,30.30,ESE,113,0.0,2.4,73,0.00,,,0.00,WUHU216HW,2013-04-25 01:36:00,
2013-04-25 03:41:00,60.0,51.4,30.29,SE,135,0.6,1.3,73,0.00,,,0.00,WUHU216HW,2013-04-25 01:41:00,
2013-04-25 03:46:00,60.0,51.4,30.30,SSW,203,0.0,1.7,73,0.00,,,0.00,WUHU216HW,2013-04-25 01:46:00,
2013-04-25 03:51:00,60.0,51.4,30.30,ENE,68,0.8,1.7,73,0.00,,,0.00,WUHU216HW,2013-04-25 01:51:00,
2013-04-25 03:56:00,59.9,51.2,30.30,ESE,113,0.0,0.8,73,0.00,,,0.00,WUHU216HW,2013-04-25 01:56:00,
2013-04-25 04:01:00,59.7,51.0,30.30,ESE,113,2.2,2.2,73,0.00,,,0.00,WUHU216HW,2013-04-25 02:01:00,
2013-04-25 04:06:00,59.5,50.5,30.30,East,90,0.0,2.2,72,0.00,,,0.00,WUHU216HW,2013-04-25 02:06:00,
2013-04-25 04:11:00,59.5,50.5,30.30,SE,135,0.0,1.3,72,0.00,,,0.00,WUHU216HW,2013-04-25 02:11:00,
2013-04-25 04:16:00,59.5,50.5,30.30,South,180,0.0,1.3,72,0.00,,,0.00,WUHU216HW,2013-04-25 02:16:00,
2013-04-25 04:21:00,59.3,50.3,30.31,ENE,68,0.8,0.8,72,0.00,,,0.00,WUHU216HW,2013-04-25 02:21:00,
2013-04-25 04:26:00,59.1,50.1,30.30,East,90,0.0,0.8,72,0.00,,,0.00,WUHU216HW,2013-04-25 02:26:00,
2013-04-25 04:31:00,58.8,49.8,30.30,ENE,68,0.0,1.1,72,0.00,,,0.00,WUHU216HW,2013-04-25 02:31:00,
2013-04-25 04:36:00,58.8,49.8,30.30,East,90,0.0,1.1,72,0.00,,,0.00,WUHU216HW,2013-04-25 02:36:00,
2013-04-25 04:41:00,58.8,50.1,30.30,ESE,113,2.0,2.0,73,0.00,,,0.00,WUHU216HW,2013-04-25 02:41:00,
2013-04-25 04:47:00,58.8,50.1,30.30,ESE,113,0.9,2.0,73,0.00,,,0.00,WUHU216HW,2013-04-25 02:47:00,
2013-04-25 04:52:00,58.8,50.1,30.30,ESE,113,1.3,2.0,73,0.00,,,0.00,WUHU216HW,2013-04-25 02:52:00,
2013-04-25 04:57:00,58.8,50.1,30.30,SE,135,0.0,2.0,73,0.00,,,0.00,WUHU216HW,2013-04-25 02:57:00,
2013-04-25 05:02:00,58.8,50.1,30.31,East,101,2.8,2.9,73,0.00,,,0.00,WUHU216HW,2013-04-25 03:02:00,
2013-04-25 05:07:00,58.6,50.0,30.30,ESE,113,3.1,3.1,73,0.00,,,0.00,WUHU216HW,2013-04-25 03:07:00,
2013-04-25 05:12:00,58.6,50.0,30.30,SE,135,1.7,3.1,73,0.00,,,0.00,WUHU216HW,2013-04-25 03:12:00,
2013-04-25 05:17:00,59.0,50.0,30.30,SE,135,0.0,2.2,72,0.00,,,0.00,WUHU216HW,2013-04-25 03:17:00,
2013-04-25 05:21:00,59.0,49.6,30.30,ENE,68,1.4,2.2,71,0.00,,,0.00,WUHU216HW,2013-04-25 03:21:00,
2013-04-25 05:26:00,59.0,49.6,30.30,East,90,1.3,2.2,71,0.00,,,0.00,WUHU216HW,2013-04-25 03:26:00,
2013-04-25 05:31:00,58.8,49.8,30.30,East,90,2.2,2.2,72,0.00,,,0.00,WUHU216HW,2013-04-25 03:31:00,
2013-04-25 05:36:00,58.6,49.6,30.30,ENE,68,0.0,2.2,72,0.00,,,0.00,WUHU216HW,2013-04-25 03:36:00,
2013-04-25 05:41:00,58.2,49.6,30.30,ESE,113,0.0,1.3,73,0.00,,,0.00,WUHU216HW,2013-04-25 03:41:00,
2013-04-25 05:46:00,58.2,49.6,30.30,East,90,3.3,3.3,73,0.00,,,0.00,WUHU216HW,2013-04-25 03:46:00,
2013-04-25 05:51:00,58.2,49.6,30.30,East,90,0.8,3.3,73,0.00,,,0.00,WUHU216HW,2013-04-25 03:51:00,
2013-04-25 05:56:00,58.2,50.0,30.29,North,0,1.1,2.4,74,0.00,,,0.00,WUHU216HW,2013-04-25 03:56:00,
2013-04-25 06:01:00,57.7,49.4,30.29,SE,135,0.0,1.1,74,0.00,,,0.00,WUHU216HW,2013-04-25 04:01:00,
2013-04-25 06:06:00,57.7,49.4,30.29,East,90,0.0,0.0,74,0.00,,,0.00,WUHU216HW,2013-04-25 04:06:00,
2013-04-25 06:11:00,57.5,49.2,30.29,NNE,23,0.0,0.0,74,0.00,,,0.00,WUHU216HW,2013-04-25 04:11:00,
2013-04-25 06:16:00,57.2,49.1,30.29,North,0,0.0,1.5,75,0.00,,,0.00,WUHU216HW,2013-04-25 04:16:00,
2013-04-25 06:21:00,57.0,49.4,30.29,WSW,248,2.5,2.6,76,0.00,,,0.00,WUHU216HW,2013-04-25 04:21:00,
2013-04-25 06:26:00,57.0,49.4,30.29,SW,225,4.9,4.9,76,0.00,,,0.00,WUHU216HW,2013-04-25 04:26:00,
2013-04-25 06:33:00,56.8,49.2,30.30,SW,225,6.7,7.3,76,0.00,,,0.00,WUHU216HW,2013-04-25 04:33:00,
2013-04-25 06:38:00,57.3,49.8,30.30,SW,225,3.0,7.3,76,0.00,,,0.00,WUHU216HW,2013-04-25 04:38:00,
2013-04-25 06:43:00,57.7,49.8,30.29,WNW,293,0.0,3.8,75,0.00,,,0.00,WUHU216HW,2013-04-25 04:43:00,
2013-04-25 06:48:00,57.9,50.0,30.29,NE,35,2.2,2.4,75,0.00,,,0.00,WUHU216HW,2013-04-25 04:48:00,
2013-04-25 06:53:00,58.2,50.0,30.30,North,0,0.0,2.4,74,0.00,,,0.00,WUHU216HW,2013-04-25 04:53:00,
2013-04-25 06:58:00,58.2,50.0,30.29,NNE,23,0.0,1.1,74,0.00,,,0.00,WUHU216HW,2013-04-25 04:58:00,
2013-04-25 07:03:00,58.2,50.0,30.28,NNE,23,0.0,0.6,74,0.00,,,0.00,WUHU216HW,2013-04-25 05:03:00,
2013-04-25 07:08:00,58.2,50.3,30.28,ENE,68,0.0,0.6,75,0.00,,,0.00,WUHU216HW,2013-04-25 05:08:00,
2013-04-25 07:13:00,58.1,50.1,30.28,WSW,248,0.0,0.0,75,0.00,,,0.00,WUHU216HW,2013-04-25 05:13:00,
2013-04-25 07:18:00,58.1,49.8,30.29,SSW,213,2.7,2.9,74,0.00,,,0.00,WUHU216HW,2013-04-25 05:18:00,
2013-04-25 07:23:00,58.8,50.5,30.29,SSE,158,1.7,2.9,74,0.00,,,0.00,WUHU216HW,2013-04-25 05:23:00,
2013-04-25 07:28:00,59.7,50.3,30.29,WSW,239,2.2,2.6,71,0.00,,,0.00,WUHU216HW,2013-04-25 05:28:00,
2013-04-25 07:33:00,60.0,50.3,30.29,West,270,0.8,2.9,70,0.00,,,0.00,WUHU216HW,2013-04-25 05:33:00,
2013-04-25 07:38:00,60.0,51.0,30.29,NNE,23,1.0,2.9,72,0.00,,,0.00,WUHU216HW,2013-04-25 05:38:00,
2013-04-25 07:43:00,59.5,50.9,30.29,ENE,68,2.4,3.3,73,0.00,,,0.00,WUHU216HW,2013-04-25 05:43:00,
2013-04-25 07:48:00,59.7,51.0,30.28,ENE,68,0.0,3.3,73,0.00,,,0.00,WUHU216HW,2013-04-25 05:48:00,
2013-04-25 07:53:00,60.4,51.0,30.28,NE,45,0.6,1.3,71,0.00,,,0.00,WUHU216HW,2013-04-25 05:53:00,
2013-04-25 07:58:00,61.7,51.8,30.28,North,0,1.3,1.3,70,0.00,,,0.00,WUHU216HW,2013-04-25 05:58:00,
2013-04-25 08:03:00,61.8,51.6,30.28,NNW,338,0.0,1.3,69,0.00,,,0.00,WUHU216HW,2013-04-25 06:03:00,
2013-04-25 08:08:00,61.8,51.6,30.28,WSW,248,2.0,2.0,69,0.00,,,0.00,WUHU216HW,2013-04-25 06:08:00,
2013-04-25 08:13:00,62.2,51.9,30.28,WNW,293,0.8,2.2,69,0.00,,,0.00,WUHU216HW,2013-04-25 06:13:00,
2013-04-25 08:18:00,62.2,51.9,30.28,WSW,248,1.7,2.4,69,0.00,,,0.00,WUHU216HW,2013-04-25 06:18:00,
2013-04-25 08:23:00,62.2,51.1,30.28,South,180,2.9,2.9,67,0.00,,,0.00,WUHU216HW,2013-04-25 06:23:00,
2013-04-25 08:28:00,62.7,51.2,30.28,SSW,203,0.0,2.9,66,0.00,,,0.00,WUHU216HW,2013-04-25 06:28:00,
2013-04-25 08:33:00,63.5,51.0,30.29,SSW,203,0.0,0.0,64,0.00,,,0.00,WUHU216HW,2013-04-25 06:33:00,
2013-04-25 08:38:00,64.4,51.7,30.29,WSW,248,0.0,0.0,63,0.00,,,0.00,WUHU216HW,2013-04-25 06:38:00,
2013-04-25 08:43:00,65.1,51.3,30.29,WSW,248,1.5,1.5,61,0.00,,,0.00,WUHU216HW,2013-04-25 06:43:00,
2013-04-25 08:48:00,65.8,51.6,30.29,South,180,2.2,2.2,60,0.00,,,0.00,WUHU216HW,2013-04-25 06:48:00,
2013-04-25 08:53:00,66.0,50.8,30.28,South,180,2.2,2.9,58,0.00,,,0.00,WUHU216HW,2013-04-25 06:53:00,
2013-04-25 08:59:00,66.7,51.0,30.29,South,172,0.9,2.9,57,0.00,,,0.00,WUHU216HW,2013-04-25 06:59:00,
2013-04-25 09:04:00,66.9,50.6,30.29,SSW,209,2.7,3.8,56,0.00,,,0.00,WUHU216HW,2013-04-25 07:04:00,
2013-04-25 09:12:00,66.3,50.6,30.28,SSW,194,3.5,5.5,57,0.00,,,0.00,WUHU216HW,2013-04-25 07:12:00,
2013-04-25 09:17:00,67.6,51.3,30.29,SSW,203,0.0,4.4,56,0.00,,,0.00,WUHU216HW,2013-04-25 07:17:00,
2013-04-25 09:22:00,67.8,51.0,30.29,South,170,2.2,3.1,55,0.00,,,0.00,WUHU216HW,2013-04-25 07:22:00,
2013-04-25 09:27:00,68.9,51.5,30.28,SSE,158,0.0,3.1,54,0.00,,,0.00,WUHU216HW,2013-04-25 07:27:00,
2013-04-25 09:32:00,70.1,51.6,30.29,WSW,248,0.0,0.0,52,0.00,,,0.00,WUHU216HW,2013-04-25 07:32:00,
2013-04-25 09:37:00,70.5,52.0,30.29,WNW,293,0.0,0.0,52,0.00,,,0.00,WUHU216HW,2013-04-25 07:37:00,
2013-04-25 09:43:00,70.5,51.3,30.29,SW,225,2.2,2.2,51,0.00,,,0.00,WUHU216HW,2013-04-25 07:43:00,
2013-04-25 09:48:00,69.6,51.1,30.29,WSW,248,1.7,2.2,52,0.00,,,0.00,WUHU216HW,2013-04-25 07:48:00,
2013-04-25 09:53:00,69.4,51.5,30.28,SW,225,3.8,3.8,53,0.00,,,0.00,WUHU216HW,2013-04-25 07:53:00,
2013-04-25 09:58:00,69.6,51.6,30.29,SW,225,1.5,3.8,53,0.00,,,0.00,WUHU216HW,2013-04-25 07:58:00,
2013-04-25 10:03:00,70.5,52.0,30.28,ESE,113,0.0,1.5,52,0.00,,,0.00,WUHU216HW,2013-04-25 08:03:00,
2013-04-25 10:08:00,71.2,52.1,30.28,WSW,248,1.3,3.1,51,0.00,,,0.00,WUHU216HW,2013-04-25 08:08:00,
2013-04-25 10:13:00,70.8,50.7,30.28,SW,225,3.8,3.8,49,0.00,,,0.00,WUHU216HW,2013-04-25 08:13:00,
2013-04-25 10:18:00,70.8,50.7,30.28,SSW,210,2.9,3.8,49,0.00,,,0.00,WUHU216HW,2013-04-25 08:18:00,
2013-04-25 10:23:00,71.4,51.5,30.28,WSW,248,3.0,3.8,49,0.00,,,0.00,WUHU216HW,2013-04-25 08:23:00,
2013-04-25 10:28:00,71.4,50.6,30.28,SW,231,4.2,4.6,48,0.00,,,0.00,WUHU216HW,2013-04-25 08:28:00,
2013-04-25 10:33:00,71.7,51.5,30.28,SW,225,5.1,5.1,49,0.00,,,0.00,WUHU216HW,2013-04-25 08:33:00,
2013-04-25 10:38:00,71.6,51.3,30.28,SW,225,2.2,6.0,49,0.00,,,0.00,WUHU216HW,2013-04-25 08:38:00,
2013-04-25 10:43:00,71.7,50.9,30.28,South,180,4.0,6.0,48,0.00,,,0.00,WUHU216HW,2013-04-25 08:43:00,
2013-04-25 10:48:00,72.3,50.8,30.29,West,270,1.1,6.0,47,0.00,,,0.00,WUHU216HW,2013-04-25 08:48:00,
2013-04-25 10:53:00,72.5,51.0,30.29,SW,220,3.5,9.1,46,0.00,,,0.00,WUHU216HW,2013-04-25 08:53:00,
2013-04-25 10:58:00,73.2,51.0,30.28,SW,225,3.8,9.1,46,0.00,,,0.00,WUHU216HW,2013-04-25 08:58:00,
2013-04-25 11:03:00,73.2,50.4,30.29,SSW,203,6.2,7.3,45,0.00,,,0.00,WUHU216HW,2013-04-25 09:03:00,
2013-04-25 11:08:00,73.2,49.8,30.29,WSW,257,4.0,7.3,44,0.00,,,0.00,WUHU216HW,2013-04-25 09:08:00,
2013-04-25 11:13:00,73.7,50.3,30.29,SSW,203,5.3,6.2,44,0.00,,,0.00,WUHU216HW,2013-04-25 09:13:00,
2013-04-25 11:18:00,74.3,49.6,30.29,SW,217,3.2,6.2,42,0.00,,,0.00,WUHU216HW,2013-04-25 09:18:00,
2013-04-25 11:23:00,75.0,50.3,30.30,South,180,2.4,6.2,42,0.00,,,0.00,WUHU216HW,2013-04-25 09:23:00,
2013-04-25 11:28:00,75.9,50.0,30.29,NNE,23,0.0,2.4,40,0.00,,,0.00,WUHU216HW,2013-04-25 09:28:00,
2013-04-25 11:33:00,77.1,51.3,30.29,South,180,0.0,1.5,40,0.00,,,0.00,WUHU216HW,2013-04-25 09:33:00,
2013-04-25 11:39:00,77.7,50.0,30.29,North,0,0.0,2.0,38,0.00,,,0.00,WUHU216HW,2013-04-25 09:39:00,
2013-04-25 11:44:00,77.5,49.1,30.29,North,0,2.0,2.4,37,0.00,,,0.00,WUHU216HW,2013-04-25 09:44:00,
2013-04-25 11:51:00,77.5,49.8,30.29,WSW,248,3.8,3.8,38,0.00,,,0.00,WUHU216HW,2013-04-25 09:51:00,
2013-04-25 11:56:00,77.5,49.8,30.29,SSW,203,1.7,3.8,38,0.00,,,0.00,WUHU216HW,2013-04-25 09:56:00,
2013-04-25 12:01:00,77.7,49.8,30.29,SSW,203,3.5,4.9,38,0.00,,,0.00,WUHU216HW,2013-04-25 10:01:00,
2013-04-25 12:06:00,78.4,50.6,30.29,South,180,1.7,4.9,38,0.00,,,0.00,WUHU216HW,2013-04-25 10:06:00,
2013-04-25 12:11:00,78.4,49.1,30.29,West,259,6.2,6.4,36,0.00,,,0.00,WUHU216HW,2013-04-25 10:11:00,
2013-04-25 12:16:00,78.6,49.2,30.29,SSE,158,2.2,6.4,36,0.00,,,0.00,WUHU216HW,2013-04-25 10:16:00,
2013-04-25 12:21:00,79.5,50.0,30.29,SSE,158,2.9,3.3,36,0.00,,,0.00,WUHU216HW,2013-04-25 10:21:00,
2013-04-25 12:26:00,79.7,50.2,30.28,SW,230,1.0,5.5,36,0.00,,,0.00,WUHU216HW,2013-04-25 10:26:00,
2013-04-25 12:31:00,80.2,49.9,30.28,ENE,68,2.4,5.5,35,0.00,,,0.00,WUHU216HW,2013-04-25 10:31:00,
2013-04-25 12:36:00,80.6,50.2,30.28,SW,225,4.6,6.2,35,0.00,,,0.00,WUHU216HW,2013-04-25 10:36:00,
2013-04-25 12:41:00,80.4,48.5,30.28,South,171,4.3,7.1,33,0.00,,,0.00,WUHU216HW,2013-04-25 10:41:00,
2013-04-25 12:46:00,80.9,48.2,30.28,South,180,3.5,7.1,32,0.00,,,0.00,WUHU216HW,2013-04-25 10:46:00,
2013-04-25 12:51:00,81.1,48.3,30.28,SW,225,3.5,4.6,32,0.00,,,0.00,WUHU216HW,2013-04-25 10:51:00,
2013-04-25 12:56:00,81.1,47.6,30.28,West,270,5.1,5.1,31,0.00,,,0.00,WUHU216HW,2013-04-25 10:56:00,
2013-04-25 13:01:00,81.1,48.2,30.28,SW,219,3.1,7.8,32,0.00,,,0.00,WUHU216HW,2013-04-25 11:01:00,
2013-04-25 13:06:00,81.1,46.8,30.28,SW,236,5.0,10.5,30,0.00,,,0.00,WUHU216HW,2013-04-25 11:06:00,
2013-04-25 13:11:00,81.3,47.7,30.27,WSW,248,4.9,10.5,31,0.00,,,0.00,WUHU216HW,2013-04-25 11:11:00,
2013-04-25 13:16:00,81.3,45.9,30.27,SW,229,5.1,8.0,29,0.00,,,0.00,WUHU216HW,2013-04-25 11:16:00,
2013-04-25 13:21:00,81.5,43.9,30.27,WSW,248,6.4,9.1,27,0.00,,,0.00,WUHU216HW,2013-04-25 11:21:00,
2013-04-25 13:26:00,81.6,44.1,30.28,SW,216,6.1,10.2,27,0.00,,,0.00,WUHU216HW,2013-04-25 11:26:00,
2013-04-25 13:31:00,82.2,43.5,30.28,SW,225,8.0,10.2,26,0.00,,,0.00,WUHU216HW,2013-04-25 11:31:00,
2013-04-25 13:36:00,82.2,42.4,30.28,SW,216,5.2,9.1,25,0.00,,,0.00,WUHU216HW,2013-04-25 11:36:00,
2013-04-25 13:41:00,82.0,43.5,30.27,South,180,4.9,9.1,26,0.00,,,0.00,WUHU216HW,2013-04-25 11:41:00,
2013-04-25 13:46:00,83.3,43.3,30.27,SSE,158,8.7,8.7,25,0.00,,,0.00,WUHU216HW,2013-04-25 11:46:00,
2013-04-25 13:51:00,82.9,44.1,30.27,SSW,203,0.0,11.6,26,0.00,,,0.00,WUHU216HW,2013-04-25 11:51:00,
2013-04-25 13:56:00,81.8,45.3,30.27,SW,216,2.7,11.6,28,0.00,,,0.00,WUHU216HW,2013-04-25 11:56:00,
2013-04-25 14:01:00,81.5,45.0,30.27,SSW,199,3.5,8.2,28,0.00,,,0.00,WUHU216HW,2013-04-25 12:01:00,
2013-04-25 14:06:00,80.9,44.6,30.27,WSW,248,4.6,8.2,28,0.00,,,0.00,WUHU216HW,2013-04-25 12:06:00,
2013-04-25 14:11:00,81.3,44.8,30.27,South,178,5.4,7.6,28,0.00,,,0.00,WUHU216HW,2013-04-25 12:11:00,
2013-04-25 14:16:00,81.6,45.1,30.26,SSE,158,5.1,7.6,28,0.00,,,0.00,WUHU216HW,2013-04-25 12:16:00,
2013-04-25 14:21:00,81.3,43.8,30.26,SW,225,2.9,7.6,27,0.00,,,0.00,WUHU216HW,2013-04-25 12:21:00,
2013-04-25 14:26:00,81.3,44.8,30.26,South,180,1.7,8.2,28,0.00,,,0.00,WUHU216HW,2013-04-25 12:26:00,
2013-04-25 14:31:00,81.6,44.1,30.26,WSW,248,6.8,8.2,27,0.00,,,0.00,WUHU216HW,2013-04-25 12:31:00,
2013-04-25 14:36:00,81.3,43.8,30.26,West,261,4.1,7.8,27,0.00,,,0.00,WUHU216HW,2013-04-25 12:36:00,
2013-04-25 14:41:00,81.5,43.9,30.25,SSW,203,7.3,7.3,27,0.00,,,0.00,WUHU216HW,2013-04-25 12:41:00,
2013-04-25 14:46:00,81.3,42.8,30.25,SW,225,6.2,9.1,26,0.00,,,0.00,WUHU216HW,2013-04-25 12:46:00,
2013-04-25 14:51:00,81.1,44.7,30.25,SSW,203,6.2,9.1,28,0.00,,,0.00,WUHU216HW,2013-04-25 12:51:00,
2013-04-25 14:56:00,81.5,43.8,30.25,South,180,6.0,6.2,27,0.00,,,0.00,WUHU216HW,2013-04-25 12:56:00,
2013-04-25 15:01:00,81.3,44.8,30.25,SW,225,3.8,11.1,28,0.00,,,0.00,WUHU216HW,2013-04-25 13:01:00,
2013-04-25 15:06:00,82.2,46.6,30.25,SSW,211,3.4,11.1,29,0.00,,,0.00,WUHU216HW,2013-04-25 13:06:00,
2013-04-25 15:11:00,83.1,45.3,30.25,SW,225,6.6,7.1,27,0.00,,,0.00,WUHU216HW,2013-04-25 13:11:00,
2013-04-25 15:16:00,83.1,45.3,30.25,South,187,1.9,7.1,27,0.00,,,0.00,WUHU216HW,2013-04-25 13:16:00,
2013-04-25 15:21:00,83.6,45.7,30.24,South,180,4.4,6.7,27,0.00,,,0.00,WUHU216HW,2013-04-25 13:21:00,
2013-04-25 15:26:00,83.6,43.6,30.24,WNW,293,0.0,6.7,25,0.00,,,0.00,WUHU216HW,2013-04-25 13:26:00,
2013-04-25 15:31:00,83.1,45.3,30.24,SW,225,1.5,4.0,27,0.00,,,0.00,WUHU216HW,2013-04-25 13:31:00,
2013-04-25 15:36:00,82.9,45.1,30.23,SSW,203,8.5,8.5,27,0.00,,,0.00,WUHU216HW,2013-04-25 13:36:00,
2013-04-25 15:41:00,82.9,46.2,30.24,SSE,158,2.9,8.5,28,0.00,,,0.00,WUHU216HW,2013-04-25 13:41:00,
2013-04-25 15:46:00,83.1,45.3,30.24,South,180,8.9,8.9,27,0.00,,,0.00,WUHU216HW,2013-04-25 13:46:00,
2013-04-25 15:51:00,83.1,45.3,30.23,South,180,3.8,8.9,27,0.00,,,0.00,WUHU216HW,2013-04-25 13:51:00,
2013-04-25 15:56:00,83.1,44.2,30.23,South,180,7.1,7.1,26,0.00,,,0.00,WUHU216HW,2013-04-25 13:56:00,
2013-04-25 16:01:00,82.4,44.5,30.24,SW,225,1.5,8.5,27,0.00,,,0.00,WUHU216HW,2013-04-25 14:01:00,
2013-04-25 16:06:00,81.8,44.1,30.24,SSW,199,7.1,8.5,27,0.00,,,0.00,WUHU216HW,2013-04-25 14:06:00,
2013-04-25 16:11:00,81.3,45.9,30.23,SW,218,4.0,8.2,29,0.00,,,0.00,WUHU216HW,2013-04-25 14:11:00,
2013-04-25 16:16:00,81.1,45.7,30.23,SSE,158,6.2,8.2,29,0.00,,,0.00,WUHU216HW,2013-04-25 14:16:00,
2013-04-25 16:21:00,81.3,45.9,30.23,SSW,203,4.2,6.2,29,0.00,,,0.00,WUHU216HW,2013-04-25 14:21:00,
2013-04-25 16:26:00,80.9,44.6,30.22,SSW,203,7.3,9.6,28,0.00,,,0.00,WUHU216HW,2013-04-25 14:26:00,
2013-04-25 16:31:00,80.9,44.6,30.22,South,189,7.5,9.6,28,0.00,,,0.00,WUHU216HW,2013-04-25 14:31:00,
2013-04-25 16:36:00,81.3,44.8,30.22,SSW,203,4.2,8.9,28,0.00,,,0.00,WUHU216HW,2013-04-25 14:36:00,
2013-04-25 16:41:00,81.8,44.4,30.22,SW,225,3.8,8.7,27,0.00,,,0.00,WUHU216HW,2013-04-25 14:41:00,
2013-04-25 16:46:00,81.8,44.2,30.22,SSW,213,4.5,8.7,27,0.00,,,0.00,WUHU216HW,2013-04-25 14:46:00,
2013-04-25 16:51:00,82.0,44.4,30.22,SW,225,8.9,8.9,27,0.00,,,0.00,WUHU216HW,2013-04-25 14:51:00,
2013-04-25 16:56:00,81.6,43.0,30.21,SW,234,4.7,8.9,26,0.00,,,0.00,WUHU216HW,2013-04-25 14:56:00,
2013-04-25 17:01:00,81.3,42.8,30.21,SW,234,8.9,10.5,26,0.00,,,0.00,WUHU216HW,2013-04-25 15:01:00,
2013-04-25 17:06:00,81.3,42.8,30.21,SW,225,4.0,10.5,26,0.00,,,0.00,WUHU216HW,2013-04-25 15:06:00,
2013-04-25 17:13:00,81.6,43.0,30.21,South,180,4.6,6.7,26,0.00,,,0.00,WUHU216HW,2013-04-25 15:13:00,
2013-04-25 17:18:00,82.0,43.3,30.20,SW,225,2.4,5.1,26,0.00,,,0.00,WUHU216HW,2013-04-25 15:18:00,
2013-04-25 17:23:00,81.6,43.0,30.21,SSW,203,6.4,6.4,26,0.00,,,0.00,WUHU216HW,2013-04-25 15:23:00,
2013-04-25 17:28:00,81.5,42.9,30.21,South,180,5.1,6.4,26,0.00,,,0.00,WUHU216HW,2013-04-25 15:28:00,
2013-04-25 17:33:00,81.8,43.2,30.20,South,185,2.5,5.1,26,0.00,,,0.00,WUHU216HW,2013-04-25 15:33:00,
2013-04-25 17:38:00,82.5,44.8,30.21,SW,225,1.7,3.8,27,0.00,,,0.00,WUHU216HW,2013-04-25 15:38:00,
2013-04-25 17:43:00,82.0,44.4,30.20,SW,229,3.5,4.0,27,0.00,,,0.00,WUHU216HW,2013-04-25 15:43:00,
2013-04-25 17:48:00,81.8,44.2,30.20,South,180,2.9,4.0,27,0.00,,,0.00,WUHU216HW,2013-04-25 15:48:00,
2013-04-25 17:53:00,81.8,44.2,30.20,SSW,203,0.8,2.9,27,0.00,,,0.00,WUHU216HW,2013-04-25 15:53:00,
2013-04-25 17:58:00,81.3,43.8,30.20,WSW,239,2.0,4.0,27,0.00,,,0.00,WUHU216HW,2013-04-25 15:58:00,
2013-04-25 18:03:00,81.3,43.8,30.20,SSE,158,1.7,4.0,27,0.00,,,0.00,WUHU216HW,2013-04-25 16:03:00,
2013-04-25 18:08:00,81.1,44.7,30.20,South,180,2.9,4.0,28,0.00,,,0.00,WUHU216HW,2013-04-25 16:08:00,
2013-04-25 18:13:00,80.9,44.4,30.21,WSW,245,2.7,3.1,28,0.00,,,0.00,WUHU216HW,2013-04-25 16:13:00,
2013-04-25 18:18:00,80.2,45.0,30.21,SW,225,3.3,3.8,29,0.00,,,0.00,WUHU216HW,2013-04-25 16:18:00,
2013-04-25 18:23:00,79.8,44.7,30.21,SW,225,1.8,3.8,29,0.00,,,0.00,WUHU216HW,2013-04-25 16:23:00,
2013-04-25 18:28:00,79.8,45.7,30.21,SW,225,3.2,4.2,30,0.00,,,0.00,WUHU216HW,2013-04-25 16:28:00,
2013-04-25 18:33:00,79.5,46.2,30.21,WSW,248,2.0,4.2,31,0.00,,,0.00,WUHU216HW,2013-04-25 16:33:00,
2013-04-25 18:38:00,79.5,50.0,30.21,WNW,293,1.7,3.1,36,0.00,,,0.00,WUHU216HW,2013-04-25 16:38:00,
2013-04-25 18:43:00,78.9,51.1,30.21,NNW,338,0.8,2.0,38,0.00,,,0.00,WUHU216HW,2013-04-25 16:43:00,
2013-04-25 18:48:00,78.6,52.3,30.21,NNW,338,0.0,1.3,40,0.00,,,0.00,WUHU216HW,2013-04-25 16:48:00,
2013-04-25 18:53:00,78.4,52.1,30.21,North,0,0.0,0.0,40,0.00,,,0.00,WUHU216HW,2013-04-25 16:53:00,
2013-04-25 18:58:00,78.0,52.4,30.21,West,270,0.0,0.0,41,0.00,,,0.00,WUHU216HW,2013-04-25 16:58:00,
2013-04-25 19:03:00,78.0,52.4,30.21,ESE,113,0.0,0.0,41,0.00,,,0.00,WUHU216HW,2013-04-25 17:03:00,
2013-04-25 19:08:00,77.7,52.7,30.20,East,90,1.1,1.1,42,0.00,,,0.00,WUHU216HW,2013-04-25 17:08:00,
2013-04-25 19:13:00,77.1,52.8,30.21,South,180,3.5,3.5,43,0.00,,,0.00,WUHU216HW,2013-04-25 17:13:00,
2013-04-25 19:18:00,76.6,52.4,30.21,South,180,0.0,3.5,43,0.00,,,0.00,WUHU216HW,2013-04-25 17:18:00,
2013-04-25 19:23:00,75.9,52.3,30.21,NE,45,0.7,1.1,44,0.00,,,0.00,WUHU216HW,2013-04-25 17:23:00,
2013-04-25 19:28:00,75.3,53.1,30.20,ESE,113,2.4,2.4,46,0.00,,,0.00,WUHU216HW,2013-04-25 17:28:00,
2013-04-25 19:33:00,75.0,52.1,30.20,ESE,113,2.0,2.4,45,0.00,,,0.00,WUHU216HW,2013-04-25 17:33:00,
2013-04-25 19:38:00,74.4,52.2,30.20,North,0,0.0,2.0,46,0.00,,,0.00,WUHU216HW,2013-04-25 17:38:00,
2013-04-25 19:43:00,73.9,51.7,30.20,SE,135,0.0,0.8,46,0.00,,,0.00,WUHU216HW,2013-04-25 17:43:00,
2013-04-25 19:50:00,73.5,51.9,30.20,SSE,158,0.0,0.0,47,0.00,,,0.00,WUHU216HW,2013-04-25 17:50:00,
2013-04-25 19:55:00,73.5,52.5,30.20,ESE,113,0.0,0.0,48,0.00,,,0.00,WUHU216HW,2013-04-25 17:55:00,
2013-04-25 20:00:00,73.5,53.1,30.20,SE,135,0.0,0.0,49,0.00,,,0.00,WUHU216HW,2013-04-25 18:00:00,
2013-04-25 20:05:00,73.5,53.7,30.20,SW,225,3.5,3.5,50,0.00,,,0.00,WUHU216HW,2013-04-25 18:05:00,
2013-04-25 20:10:00,73.0,53.7,30.21,WSW,248,3.1,3.5,51,0.00,,,0.00,WUHU216HW,2013-04-25 18:10:00,
2013-04-25 20:15:00,72.3,53.1,30.21,WSW,248,2.0,4.2,51,0.00,,,0.00,WUHU216HW,2013-04-25 18:15:00,
2013-04-25 20:20:00,71.7,52.6,30.21,SW,234,4.2,5.1,51,0.00,,,0.00,WUHU216HW,2013-04-25 18:20:00,
2013-04-25 20:25:00,71.4,52.8,30.21,SW,225,3.5,5.1,52,0.00,,,0.00,WUHU216HW,2013-04-25 18:25:00,
2013-04-25 20:30:00,71.2,52.6,30.21,SW,225,2.9,5.8,52,0.00,,,0.00,WUHU216HW,2013-04-25 18:30:00,
2013-04-25 20:35:00,70.8,52.3,30.21,SW,225,3.1,5.8,52,0.00,,,0.00,WUHU216HW,2013-04-25 18:35:00,
2013-04-25 20:40:00,70.8,52.3,30.21,WSW,248,0.8,4.0,52,0.00,,,0.00,WUHU216HW,2013-04-25 18:40:00,
2013-04-25 20:45:00,70.8,52.3,30.21,WSW,248,0.0,0.8,52,0.00,,,0.00,WUHU216HW,2013-04-25 18:45:00,
2013-04-25 20:50:00,70.5,52.5,30.21,WSW,248,0.0,0.0,53,0.00,,,0.00,WUHU216HW,2013-04-25 18:50:00,
2013-04-25 20:55:00,70.3,53.3,30.21,NE,45,1.3,1.3,55,0.00,,,0.00,WUHU216HW,2013-04-25 18:55:00,
2013-04-25 21:00:00,69.9,53.5,30.21,ENE,68,1.1,1.5,56,0.00,,,0.00,WUHU216HW,2013-04-25 19:00:00,
2013-04-25 21:05:00,69.6,53.2,30.21,ENE,68,2.9,3.3,56,0.00,,,0.00,WUHU216HW,2013-04-25 19:05:00,
2013-04-25 21:10:00,69.8,53.3,30.21,NE,45,0.0,3.3,56,0.00,,,0.00,WUHU216HW,2013-04-25 19:10:00,
2013-04-25 21:15:00,69.6,53.2,30.20,ENE,68,0.0,1.3,56,0.00,,,0.00,WUHU216HW,2013-04-25 19:15:00,
2013-04-25 21:20:00,69.4,53.5,30.20,ENE,68,0.0,1.3,57,0.00,,,0.00,WUHU216HW,2013-04-25 19:20:00,
2013-04-25 21:25:00,69.0,53.1,30.20,SE,135,0.0,0.0,57,0.00,,,0.00,WUHU216HW,2013-04-25 19:25:00,
2013-04-25 21:30:00,68.9,53.5,30.20,SSW,203,0.0,0.0,58,0.00,,,0.00,WUHU216HW,2013-04-25 19:30:00,
2013-04-25 21:35:00,68.9,53.5,30.20,ESE,113,0.0,0.0,59,0.00,,,0.00,WUHU216HW,2013-04-25 19:35:00,
2013-04-25 21:40:00,68.7,53.8,30.20,ENE,68,1.3,1.3,59,0.00,,,0.00,WUHU216HW,2013-04-25 19:40:00,
2013-04-25 21:45:00,68.7,53.6,30.20,ESE,113,0.0,1.3,59,0.00,,,0.00,WUHU216HW,2013-04-25 19:45:00,
2013-04-25 21:50:00,68.5,53.6,30.20,NNE,23,0.0,0.6,59,0.00,,,0.00,WUHU216HW,2013-04-25 19:50:00,
2013-04-25 21:55:00,68.3,53.9,30.20,ESE,113,1.9,2.2,60,0.00,,,0.00,WUHU216HW,2013-04-25 19:55:00,
2013-04-25 22:00:00,68.1,53.7,30.20,ESE,113,1.5,2.2,60,0.00,,,0.00,WUHU216HW,2013-04-25 20:00:00,
2013-04-25 22:05:00,68.1,54.1,30.20,North,0,0.0,2.2,61,0.00,,,0.00,WUHU216HW,2013-04-25 20:05:00,
2013-04-25 22:10:00,68.0,54.0,30.20,ESE,113,0.0,1.3,61,0.00,,,0.00,WUHU216HW,2013-04-25 20:10:00,
2013-04-25 22:15:00,68.0,53.6,30.20,East,90,0.0,0.0,60,0.00,,,0.00,WUHU216HW,2013-04-25 20:15:00,
2013-04-25 22:20:00,68.1,53.2,30.19,SSW,203,0.8,1.1,59,0.00,,,0.00,WUHU216HW,2013-04-25 20:20:00,
2013-04-25 22:25:00,68.3,51.9,30.18,East,90,2.2,2.2,56,0.00,,,0.00,WUHU216HW,2013-04-25 20:25:00,
2013-04-25 22:30:00,68.1,51.8,30.18,North,0,0.8,2.2,56,0.00,,,0.00,WUHU216HW,2013-04-25 20:30:00,
2013-04-25 22:35:00,67.8,52.4,30.18,NNE,23,0.0,1.3,58,0.00,,,0.00,WUHU216HW,2013-04-25 20:35:00,
2013-04-25 22:40:00,67.8,53.4,30.18,ESE,107,1.6,2.2,60,0.00,,,0.00,WUHU216HW,2013-04-25 20:40:00,
2013-04-25 22:45:00,67.8,51.9,30.17,SE,139,1.9,3.5,57,0.00,,,0.00,WUHU216HW,2013-04-25 20:45:00,
2013-04-25 22:50:00,68.1,51.8,30.17,SE,135,1.1,3.5,56,0.00,,,0.00,WUHU216HW,2013-04-25 20:50:00,
2013-04-25 22:56:00,68.1,51.3,30.16,ENE,68,2.0,2.9,54,0.00,,,0.00,WUHU216HW,2013-04-25 20:56:00,
2013-04-25 23:01:00,68.3,51.9,30.15,NW,315,0.0,2.0,56,0.00,,,0.00,WUHU216HW,2013-04-25 21:01:00,
2013-04-25 23:06:00,68.3,51.5,30.15,South,180,2.4,2.4,55,0.00,,,0.00,WUHU216HW,2013-04-25 21:06:00,
2013-04-25 23:11:00,68.3,52.4,30.15,SW,225,5.5,5.5,57,0.00,,,0.00,WUHU216HW,2013-04-25 21:11:00,
2013-04-25 23:17:00,68.0,53.1,30.15,SSW,203,6.2,6.2,59,0.00,,,0.00,WUHU216HW,2013-04-25 21:17:00,
2013-04-25 23:22:00,67.8,53.8,30.15,WSW,248,3.0,8.7,61,0.00,,,0.00,WUHU216HW,2013-04-25 21:22:00,
2013-04-25 23:27:00,67.6,54.1,30.15,SW,225,7.3,8.7,62,0.00,,,0.00,WUHU216HW,2013-04-25 21:27:00,
2013-04-25 23:32:00,67.6,53.9,30.15,SSW,209,6.1,8.7,62,0.00,,,0.00,WUHU216HW,2013-04-25 21:32:00,
2013-04-25 23:38:00,67.8,53.8,30.16,SW,225,2.5,8.7,61,0.00,,,0.00,WUHU216HW,2013-04-25 21:38:00,
2013-04-25 23:43:00,67.8,53.8,30.17,SW,225,5.1,5.1,61,0.00,,,0.00,WUHU216HW,2013-04-25 21:43:00,
2013-04-25 23:48:00,68.3,53.9,30.17,South,180,8.2,8.2,60,0.00,,,0.00,WUHU216HW,2013-04-25 21:48:00,
2013-04-25 23:53:00,68.9,53.9,30.17,SSW,203,5.3,8.2,59,0.00,,,0.00,WUHU216HW,2013-04-25 21:53:00,
2013-04-25 23:58:00,69.0,54.1,30.17,SW,229,3.7,8.0,59,0.00,,,0.00,WUHU216HW,2013-04-25 21:58:00,